Super Servant 4 — PJPO — position and weather

sailwx.info

Track history (hours):
 
Tides and Currents Weather Stations Pressure Air Temp Water Temp Dewpoint Dewpoint Depression Visibility Wind Speed Wind Dir Waves Ship Positions

Super Servant 4

Last reported at 2017-Feb-24 02:33 UTC. Time now 2017-Feb-24 03:45 UTC.
Position N 37°48' W 009°36'.

Length 139 m; beam 32 m.

Type: Cargo ship. MMSI: 306157000.

Date/timePositionNaut miles runAvg speedWind from/ knotsBaromVisibWave heightAir tempDewpointWater temp
2017-Feb-24 02:33N 37°48' W 009°36'10 9.7
2017-Feb-24 01:33N 37°39' W 009°32'10 9.7
2017-Feb-24 00:33N 37°30' W 009°28'10 9.8
2017-Feb-23 23:31N 37°20' W 009°24'18910.3
2017-Feb-23 05:07N 35°58' W 005°52'610.3
2017-Feb-23 04:31N 35°57' W 005°44'9 9.1
2017-Feb-23 03:33N 35°58' W 005°34'9 9.3
2017-Feb-23 02:33N 36°01' W 005°22'1010.4
2017-Feb-23 01:33N 36°02' W 005°10'  
2017-Feb-19 19:32N 36°43' E 013°24'2311.4
2017-Feb-19 17:33N 36°36' E 013°51'1211.5
2017-Feb-19 16:33N 36°34' E 014°05'1211.9
2017-Feb-19 15:33N 36°31' E 014°19'1211.9
2017-Feb-19 14:33N 36°28' E 014°33'1211.6
2017-Feb-19 13:33N 36°26' E 014°48'45410.1
2017-Feb-17 16:29N 37°26' E 024°10'2411.4
2017-Feb-17 14:20N 37°49' E 024°22'1011.7
2017-Feb-17 13:30N 37°55' E 024°32'  
Track history (hours):
 
Tides and Currents Weather Stations Pressure Air Temp Water Temp Dewpoint Dewpoint Depression Visibility Wind Speed Wind Dir Waves Ship Positions

Super Servant 4

Last reported at 2017-Feb-24 02:33 UTC. Time now 2017-Feb-24 03:45 UTC.
Position N 37°48' W 009°36'.

Length 139 m; beam 32 m.

Type: Cargo ship. MMSI: 306157000.

Date/timePositionNaut miles runAvg speedWind from/ knotsBaromVisibWave heightAir tempDewpointWater temp
2017-Feb-24 02:33N 37°48' W 009°36'10 9.7
2017-Feb-24 01:33N 37°39' W 009°32'10 9.7
2017-Feb-24 00:33N 37°30' W 009°28'10 9.8
2017-Feb-23 23:31N 37°20' W 009°24'18910.3
2017-Feb-23 05:07N 35°58' W 005°52'610.3
2017-Feb-23 04:31N 35°57' W 005°44'9 9.1
2017-Feb-23 03:33N 35°58' W 005°34'9 9.3
2017-Feb-23 02:33N 36°01' W 005°22'1010.4
2017-Feb-23 01:33N 36°02' W 005°10'  
2017-Feb-19 19:32N 36°43' E 013°24'2311.4
2017-Feb-19 17:33N 36°36' E 013°51'1211.5
2017-Feb-19 16:33N 36°34' E 014°05'1211.9
2017-Feb-19 15:33N 36°31' E 014°19'1211.9
2017-Feb-19 14:33N 36°28' E 014°33'1211.6
2017-Feb-19 13:33N 36°26' E 014°48'45410.1
2017-Feb-17 16:29N 37°26' E 024°10'2411.4
2017-Feb-17 14:20N 37°49' E 024°22'1011.7
2017-Feb-17 13:30N 37°55' E 024°32'  

Dump ship's entire track history